createdAt,value
2023-03-11T00:01:54.606Z,0.00
2023-03-11T00:12:01.489Z,0.00
2023-03-11T00:22:08.709Z,0.00
2023-03-11T00:32:16.133Z,0.00
2023-03-11T00:42:22.796Z,0.00
2023-03-11T00:52:29.904Z,0.00
2023-03-11T01:02:37.235Z,0.00
2023-03-11T01:12:44.225Z,0.00
2023-03-11T01:22:51.095Z,0.00
2023-03-11T01:32:58.294Z,0.00
2023-03-11T01:43:05.206Z,0.00
2023-03-11T01:53:11.986Z,0.00
2023-03-11T02:03:19.260Z,0.00
2023-03-11T02:13:26.456Z,0.00
2023-03-11T02:23:33.202Z,0.00
2023-03-11T02:33:40.066Z,0.00
2023-03-11T02:43:47.321Z,0.00
2023-03-11T02:53:54.143Z,0.00
2023-03-11T03:04:01.503Z,0.00
2023-03-11T03:14:08.549Z,0.00
2023-03-11T03:24:15.592Z,0.00
2023-03-11T03:34:22.709Z,0.00
2023-03-11T03:44:29.356Z,0.00
2023-03-11T03:54:36.537Z,0.00
2023-03-11T04:04:44.099Z,0.00
2023-03-11T04:14:51.343Z,0.00
2023-03-11T04:24:57.854Z,0.00
2023-03-11T04:35:04.752Z,0.00
2023-03-11T04:45:11.685Z,0.00
2023-03-11T04:55:19.016Z,0.00
2023-03-11T05:05:26.276Z,0.00
2023-03-11T05:15:32.839Z,380.00
2023-03-11T05:25:39.901Z,372.00
2023-03-11T05:35:47.179Z,384.00
2023-03-11T05:45:54.027Z,396.00
2023-03-11T05:56:01.198Z,400.00
2023-03-11T06:06:08.254Z,392.00
2023-03-11T06:16:15.389Z,400.00
2023-03-11T06:26:22.386Z,404.00
2023-03-11T06:36:29.329Z,440.00
2023-03-11T06:46:36.659Z,448.00
2023-03-11T06:56:44.160Z,472.00
2023-03-11T07:06:51.361Z,480.00
2023-03-11T07:16:58.709Z,484.00
2023-03-11T07:27:05.680Z,736.00
2023-03-11T07:37:12.778Z,740.00
2023-03-11T07:47:19.741Z,760.00
2023-03-11T07:57:26.753Z,732.00
2023-03-11T08:07:34.142Z,1016.00
2023-03-11T08:17:41.507Z,908.00
2023-03-11T08:27:48.721Z,988.00
2023-03-11T08:37:56.194Z,2356.00
2023-03-11T08:48:03.632Z,712.00
2023-03-11T08:58:11.068Z,996.00
2023-03-11T09:08:18.186Z,656.00
2023-03-11T09:18:25.041Z,1636.00
2023-03-11T09:28:32.278Z,656.00
2023-03-11T09:38:39.132Z,608.00
2023-03-11T09:48:46.119Z,560.00
2023-03-11T09:58:53.057Z,528.00
2023-03-11T10:09:00.495Z,520.00
2023-03-11T10:19:07.262Z,824.00
2023-03-11T10:29:14.466Z,1084.00
2023-03-11T10:39:21.481Z,876.00
2023-03-11T10:49:28.481Z,744.00
2023-03-11T10:59:35.419Z,876.00
2023-03-11T11:09:41.577Z,840.00
2023-03-11T11:19:48.511Z,768.00
2023-03-11T11:29:56.056Z,844.00
2023-03-11T11:40:03.782Z,840.00
2023-03-11T11:50:10.643Z,604.00
2023-03-11T12:00:17.751Z,748.00
2023-03-11T12:10:24.807Z,852.00
2023-03-11T12:20:32.051Z,828.00
2023-03-11T12:30:39.210Z,828.00
2023-03-11T12:40:47.089Z,792.00
2023-03-11T12:50:54.251Z,668.00
2023-03-11T13:01:01.226Z,804.00
2023-03-11T13:11:07.958Z,744.00
2023-03-11T13:21:15.190Z,688.00
2023-03-11T13:31:22.559Z,656.00
2023-03-11T13:41:30.136Z,744.00
2023-03-11T13:51:37.606Z,700.00
2023-03-11T14:01:44.363Z,708.00
2023-03-11T14:11:51.461Z,704.00
2023-03-11T14:21:58.383Z,668.00
2023-03-11T14:32:05.378Z,524.00
2023-03-11T14:42:12.425Z,608.00
2023-03-11T14:52:19.309Z,504.00
2023-03-11T15:02:26.587Z,552.00
2023-03-11T15:12:33.824Z,528.00
2023-03-11T15:22:40.810Z,520.00
2023-03-11T15:32:47.511Z,504.00
2023-03-11T15:42:55.143Z,500.00
2023-03-11T15:53:01.794Z,488.00
2023-03-11T16:03:08.926Z,472.00
2023-03-11T16:13:15.958Z,456.00
2023-03-11T16:23:22.722Z,444.00
2023-03-11T16:33:29.106Z,428.00
2023-03-11T16:43:35.909Z,416.00
2023-03-11T16:53:42.982Z,400.00
2023-03-11T17:03:50.156Z,392.00
2023-03-11T17:14:13.648Z,388.00
2023-03-11T17:24:09.361Z,384.00
2023-03-11T17:34:16.335Z,0.00
2023-03-11T17:44:23.503Z,0.00
2023-03-11T17:54:30.573Z,0.00
2023-03-11T18:04:37.467Z,0.00
2023-03-11T18:14:44.567Z,0.00
2023-03-11T18:24:51.197Z,0.00
2023-03-11T18:34:58.259Z,0.00
2023-03-11T18:45:05.527Z,0.00
2023-03-11T18:55:12.523Z,0.00
2023-03-11T19:05:19.890Z,0.00
2023-03-11T19:15:27.872Z,0.00
2023-03-11T19:25:34.652Z,0.00
2023-03-11T19:35:41.962Z,0.00
2023-03-11T19:45:49.096Z,0.00
2023-03-11T19:55:55.981Z,0.00
2023-03-11T20:06:03.301Z,0.00
2023-03-11T20:16:10.341Z,0.00
2023-03-11T20:26:17.816Z,0.00
2023-03-11T20:36:25.202Z,0.00
2023-03-11T20:46:32.245Z,0.00
2023-03-11T20:56:39.131Z,0.00
2023-03-11T21:06:45.950Z,0.00
2023-03-11T21:16:53.544Z,0.00
2023-03-11T21:27:01.592Z,0.00
2023-03-11T21:37:09.455Z,0.00
2023-03-11T21:47:16.509Z,0.00
2023-03-11T21:57:23.592Z,0.00
2023-03-11T22:07:30.315Z,0.00
2023-03-11T22:17:37.584Z,0.00
2023-03-11T22:27:44.610Z,0.00
2023-03-11T22:37:51.875Z,0.00
2023-03-11T22:47:58.503Z,0.00
2023-03-11T22:58:05.686Z,0.00
2023-03-11T23:08:13.264Z,0.00
2023-03-11T23:18:19.809Z,0.00
2023-03-11T23:28:27.058Z,0.00
2023-03-11T23:38:34.062Z,0.00
2023-03-11T23:48:41.566Z,0.00
2023-03-11T23:58:48.814Z,0.00
